createdAt,value
2018-10-11T00:00:57.281Z,79.40
2018-10-11T00:03:25.379Z,79.71
2018-10-11T00:05:53.495Z,78.72
2018-10-11T00:08:21.597Z,78.68
2018-10-11T00:10:49.696Z,79.02
2018-10-11T00:13:17.789Z,79.11
2018-10-11T00:15:45.881Z,78.31
2018-10-11T00:18:13.965Z,78.76
2018-10-11T00:20:42.118Z,78.33
2018-10-11T00:23:10.249Z,78.14
2018-10-11T00:25:38.358Z,77.87
2018-10-11T00:28:06.789Z,77.47
2018-10-11T00:30:34.888Z,77.42
2018-10-11T00:33:03.083Z,76.93
2018-10-11T00:35:31.195Z,76.64
2018-10-11T00:37:59.289Z,76.38
2018-10-11T00:40:27.389Z,76.14
2018-10-11T00:42:55.478Z,75.97
2018-10-11T00:45:23.633Z,75.86
2018-10-11T00:47:51.728Z,75.76
2018-10-11T00:50:19.828Z,76.08
2018-10-11T00:52:47.923Z,76.46
2018-10-11T00:55:16.033Z,76.46
2018-10-11T00:57:44.124Z,76.42
2018-10-11T01:00:12.297Z,76.90
2018-10-11T01:02:40.418Z,76.56
2018-10-11T01:05:08.529Z,76.78
2018-10-11T01:07:36.625Z,76.64
2018-10-11T01:10:04.800Z,76.46
2018-10-11T01:12:32.875Z,76.29
2018-10-11T01:15:00.979Z,76.56
2018-10-11T01:17:29.069Z,76.89
2018-10-11T01:19:57.164Z,77.14
2018-10-11T01:22:25.257Z,78.43
2018-10-11T01:24:53.337Z,78.54
2018-10-11T01:27:21.433Z,78.25
2018-10-11T01:29:49.616Z,78.18
2018-10-11T01:32:17.637Z,77.95
2018-10-11T01:34:45.803Z,78.34
2018-10-11T01:37:13.930Z,78.01
2018-10-11T01:39:42.049Z,78.33
2018-10-11T01:42:10.157Z,78.37
2018-10-11T01:44:38.489Z,78.49
2018-10-11T01:47:06.681Z,78.39
2018-10-11T01:49:34.793Z,78.90
2018-10-11T01:52:02.894Z,78.89
2018-10-11T01:54:30.985Z,79.10
2018-10-11T01:56:59.081Z,79.70
2018-10-11T01:59:27.160Z,79.80
2018-10-11T02:01:55.222Z,79.44
2018-10-11T02:04:23.301Z,78.96
2018-10-11T02:06:51.359Z,78.59
2018-10-11T02:09:19.494Z,79.73
2018-10-11T02:11:47.519Z,79.41
2018-10-11T02:14:15.617Z,80.12
2018-10-11T02:16:43.744Z,80.22
2018-10-11T02:19:12.145Z,80.40
2018-10-11T02:21:40.472Z,81.55
2018-10-11T02:24:08.608Z,81.10
2018-10-11T02:26:36.688Z,80.50
2018-10-11T02:29:04.744Z,79.80
2018-10-11T02:31:32.837Z,79.10
2018-10-11T02:34:00.926Z,78.80
2018-10-11T02:36:29.012Z,79.94
2018-10-11T02:38:57.189Z,80.07
2018-10-11T02:41:25.381Z,80.37
2018-10-11T02:43:53.740Z,80.47
2018-10-11T02:46:21.832Z,80.68
2018-10-11T02:48:49.917Z,80.58
2018-10-11T02:51:18.032Z,80.03
2018-10-11T02:53:46.116Z,79.89
2018-10-11T02:56:14.204Z,80.00
2018-10-11T02:58:53.777Z,79.98
2018-10-11T03:01:21.881Z,80.19
2018-10-11T03:03:52.828Z,80.26
2018-10-11T03:06:20.969Z,81.60
2018-10-11T03:08:49.038Z,81.40
2018-10-11T03:11:17.129Z,80.84
2018-10-11T03:13:45.219Z,81.10
2018-10-11T03:16:13.344Z,80.84
2018-10-11T03:18:41.461Z,81.13
2018-10-11T03:21:09.568Z,80.73
2018-10-11T03:23:37.664Z,81.43
2018-10-11T03:26:05.761Z,82.11
2018-10-11T03:28:33.833Z,82.73
2018-10-11T03:31:01.928Z,82.58
2018-10-11T03:33:30.063Z,82.10
2018-10-11T03:35:58.160Z,81.73
2018-10-11T03:38:26.269Z,81.79
2018-10-11T03:40:54.449Z,81.70
2018-10-11T03:43:22.689Z,82.33
2018-10-11T03:45:50.776Z,82.44
2018-10-11T03:48:18.863Z,83.17
2018-10-11T03:50:46.953Z,82.53
2018-10-11T03:53:15.062Z,82.46
2018-10-11T03:55:43.159Z,82.80
2018-10-11T03:58:11.252Z,82.63
2018-10-11T04:00:39.356Z,82.38
2018-10-11T04:03:07.507Z,82.08
2018-10-11T04:05:35.615Z,82.11
2018-10-11T04:08:03.692Z,82.68
2018-10-11T04:10:31.844Z,82.57
2018-10-11T04:12:59.944Z,82.26
2018-10-11T04:15:28.179Z,82.96
2018-10-11T04:17:56.345Z,83.06
2018-10-11T04:20:24.473Z,82.60
2018-10-11T04:22:52.585Z,82.66
2018-10-11T04:25:20.692Z,82.35
2018-10-11T04:27:48.787Z,83.22
2018-10-11T04:30:16.870Z,82.94
2018-10-11T04:32:44.960Z,83.79
2018-10-11T04:35:13.160Z,83.52
2018-10-11T04:37:41.524Z,83.55
2018-10-11T04:40:09.649Z,83.31
2018-10-11T04:42:37.747Z,83.01
2018-10-11T04:45:05.820Z,82.87
2018-10-11T04:47:33.912Z,82.91
2018-10-11T04:50:02.005Z,83.74
2018-10-11T04:52:30.238Z,84.55
2018-10-11T04:54:58.328Z,84.78
2018-10-11T04:57:26.438Z,83.68
2018-10-11T04:59:54.532Z,84.37
2018-10-11T05:02:22.625Z,83.42
2018-10-11T05:04:50.717Z,82.54
2018-10-11T05:07:18.920Z,82.15
2018-10-11T05:09:47.048Z,81.93
2018-10-11T05:12:15.240Z,81.97
2018-10-11T05:14:43.672Z,83.07
2018-10-11T05:17:11.815Z,83.12
2018-10-11T05:19:40.585Z,82.58
2018-10-11T05:22:08.672Z,81.87
2018-10-11T05:24:36.760Z,81.59
2018-10-11T05:27:05.570Z,81.47
2018-10-11T05:29:33.710Z,81.66
2018-10-11T05:32:01.946Z,82.41
2018-10-11T05:34:30.072Z,82.14
2018-10-11T05:36:58.200Z,82.29
2018-10-11T05:39:26.389Z,82.19
2018-10-11T05:41:54.499Z,82.55
2018-10-11T05:44:22.662Z,82.55
2018-10-11T05:46:50.764Z,82.57
2018-10-11T05:49:18.916Z,82.75
2018-10-11T05:51:47.055Z,83.18
2018-10-11T05:54:15.138Z,83.05
2018-10-11T05:56:45.278Z,82.53
2018-10-11T05:59:13.330Z,82.78
2018-10-11T06:01:41.405Z,82.56
2018-10-11T06:04:11.115Z,82.17
2018-10-11T06:06:39.245Z,81.59
2018-10-11T06:09:08.388Z,80.52
2018-10-11T06:11:36.592Z,80.09
2018-10-11T06:14:04.772Z,79.58
2018-10-11T06:16:33.108Z,78.99
2018-10-11T06:19:01.192Z,76.36
2018-10-11T06:21:29.477Z,75.59
2018-10-11T06:23:58.780Z,73.39
2018-10-11T06:26:26.881Z,73.33
2018-10-11T06:28:54.994Z,73.51
2018-10-11T06:31:23.173Z,72.23
2018-10-11T06:36:31.326Z,69.61
2018-10-11T06:38:59.781Z,68.71
2018-10-11T06:41:28.087Z,68.62
2018-10-11T06:43:56.667Z,67.87
2018-10-11T06:46:24.885Z,67.03
2018-10-11T06:48:53.060Z,65.64
2018-10-11T06:51:21.302Z,62.30
2018-10-11T06:53:52.721Z,65.03
2018-10-11T06:56:21.345Z,64.73
2018-10-11T06:58:49.493Z,64.83
2018-10-11T07:01:17.687Z,60.93
2018-10-11T07:03:45.829Z,60.93
2018-10-11T07:06:14.012Z,60.69
2018-10-11T07:08:42.302Z,60.32
2018-10-11T07:11:10.417Z,59.74
2018-10-11T07:13:38.970Z,59.21
2018-10-11T07:16:07.169Z,58.14
2018-10-11T07:18:35.305Z,58.10
2018-10-11T07:21:03.464Z,57.07
2018-10-11T07:23:31.767Z,57.12
2018-10-11T07:25:59.967Z,56.36
2018-10-11T07:28:28.136Z,56.26
2018-10-11T07:30:56.281Z,55.67
2018-10-11T07:33:24.822Z,55.11
2018-10-11T07:35:53.044Z,54.35
2018-10-11T07:38:21.273Z,53.52
2018-10-11T07:40:49.453Z,52.31
2018-10-11T07:43:17.591Z,53.09
2018-10-11T07:45:45.713Z,51.24
2018-10-11T07:48:13.843Z,52.00
2018-10-11T07:50:42.072Z,49.88
2018-10-11T07:53:10.258Z,50.08
2018-10-11T07:55:38.452Z,49.74
2018-10-11T07:58:06.612Z,49.31
2018-10-11T08:00:34.736Z,49.73
2018-10-11T08:03:02.840Z,49.97
2018-10-11T08:05:37.605Z,52.07
2018-10-11T08:08:05.745Z,51.77
2018-10-11T08:10:33.977Z,51.55
2018-10-11T08:13:02.080Z,51.24
2018-10-11T08:15:30.196Z,51.62
2018-10-11T08:17:58.676Z,52.13
2018-10-11T08:20:26.791Z,51.94
2018-10-11T08:22:54.891Z,52.71
2018-10-11T08:25:23.380Z,53.72
2018-10-11T08:27:51.291Z,53.56
2018-10-11T08:30:19.474Z,53.08
2018-10-11T08:32:47.590Z,53.75
2018-10-11T08:35:15.772Z,53.42
2018-10-11T08:37:43.962Z,53.47
2018-10-11T08:40:12.034Z,53.61
2018-10-11T08:42:40.140Z,54.25
2018-10-11T08:45:08.310Z,55.32
2018-10-11T08:47:36.445Z,56.50
2018-10-11T08:50:04.672Z,57.17
2018-10-11T08:52:32.796Z,57.40
2018-10-11T08:55:01.013Z,57.56
2018-10-11T08:57:29.162Z,58.37
2018-10-11T08:59:57.346Z,59.01
2018-10-11T09:02:25.505Z,58.87
2018-10-11T09:04:53.641Z,58.36
2018-10-11T09:07:21.882Z,58.70
2018-10-11T09:09:53.634Z,58.75
2018-10-11T09:12:18.624Z,58.37
2018-10-11T09:14:46.837Z,58.63
2018-10-11T09:17:15.052Z,58.65
2018-10-11T09:19:43.249Z,58.68
2018-10-11T09:22:11.464Z,58.46
2018-10-11T09:24:39.589Z,58.09
2018-10-11T09:27:07.718Z,56.80
2018-10-11T09:29:35.869Z,54.98
2018-10-11T09:32:03.960Z,55.30
2018-10-11T09:34:32.253Z,55.27
2018-10-11T09:37:00.417Z,54.61
2018-10-11T09:39:28.624Z,54.08
2018-10-11T09:41:56.758Z,53.46
2018-10-11T09:44:24.943Z,54.01
2018-10-11T09:46:53.152Z,53.42
2018-10-11T09:49:21.284Z,52.85
2018-10-11T09:51:49.461Z,52.29
2018-10-11T09:54:17.580Z,53.11
2018-10-11T09:57:48.737Z,52.08
2018-10-11T10:00:22.145Z,52.30
2018-10-11T10:02:50.676Z,52.68
2018-10-11T10:05:18.782Z,52.82
2018-10-11T10:07:46.937Z,52.63
2018-10-11T10:10:15.095Z,52.87
2018-10-11T10:12:43.310Z,52.49
2018-10-11T10:15:11.488Z,52.28
2018-10-11T10:17:39.704Z,52.20
2018-10-11T10:20:07.840Z,51.48
2018-10-11T10:22:36.015Z,51.13
2018-10-11T10:25:04.162Z,51.42
2018-10-11T10:27:32.422Z,52.49
2018-10-11T10:30:00.610Z,51.86
2018-10-11T10:32:28.808Z,51.20
2018-10-11T10:34:57.223Z,51.47
2018-10-11T10:37:25.446Z,51.22
2018-10-11T10:39:53.779Z,50.85
2018-10-11T10:42:21.936Z,50.84
2018-10-11T10:44:50.148Z,50.72
2018-10-11T10:47:18.418Z,50.77
2018-10-11T10:49:46.597Z,50.27
2018-10-11T10:52:14.757Z,50.09
2018-10-11T10:54:42.912Z,49.83
2018-10-11T10:57:11.097Z,48.50
2018-10-11T10:59:39.315Z,49.12
2018-10-11T11:02:07.525Z,47.92
2018-10-11T11:04:35.728Z,47.37
2018-10-11T11:07:03.946Z,48.92
2018-10-11T11:09:32.103Z,48.71
2018-10-11T11:12:00.448Z,47.73
2018-10-11T11:14:29.145Z,48.26
2018-10-11T11:16:57.388Z,48.60
2018-10-11T11:19:25.780Z,48.39
2018-10-11T11:21:53.969Z,48.88
2018-10-11T11:24:22.088Z,47.58
2018-10-11T11:26:50.363Z,48.22
2018-10-11T11:29:18.879Z,47.29
2018-10-11T11:31:47.097Z,48.17
2018-10-11T11:34:15.349Z,48.55
2018-10-11T11:36:43.572Z,47.77
2018-10-11T11:39:11.801Z,48.18
2018-10-11T11:41:39.932Z,48.13
2018-10-11T11:44:08.072Z,48.84
2018-10-11T11:46:36.187Z,48.19
2018-10-11T11:49:04.343Z,47.83
2018-10-11T11:51:32.528Z,47.49
2018-10-11T11:54:00.689Z,47.45
2018-10-11T11:56:28.846Z,46.31
2018-10-11T11:58:56.981Z,47.48
2018-10-11T12:01:25.136Z,47.76
2018-10-11T12:03:53.265Z,47.02
2018-10-11T12:06:21.424Z,46.46
2018-10-11T12:08:49.553Z,47.16
2018-10-11T12:11:17.691Z,47.16
2018-10-11T12:13:45.848Z,46.85
2018-10-11T12:16:13.989Z,47.08
2018-10-11T12:18:42.169Z,46.67
2018-10-11T12:21:10.372Z,47.12
2018-10-11T12:23:38.514Z,47.22
2018-10-11T12:26:06.803Z,46.82
2018-10-11T12:28:35.090Z,46.84
2018-10-11T12:31:03.197Z,47.57
2018-10-11T12:33:32.377Z,47.91
2018-10-11T12:36:06.939Z,47.59
2018-10-11T12:38:35.129Z,47.57
2018-10-11T12:41:03.265Z,47.23
2018-10-11T12:43:31.398Z,46.51
2018-10-11T12:45:59.561Z,46.48
2018-10-11T12:48:27.716Z,47.31
2018-10-11T12:50:55.791Z,47.22
2018-10-11T12:53:23.881Z,46.86
2018-10-11T12:55:52.000Z,47.50
2018-10-11T12:58:20.082Z,47.77
2018-10-11T13:00:48.257Z,46.74
2018-10-11T13:03:16.444Z,46.89
2018-10-11T13:05:44.480Z,46.92
2018-10-11T13:08:12.547Z,46.87
2018-10-11T13:10:40.626Z,47.05
2018-10-11T13:13:08.896Z,47.86
2018-10-11T13:15:37.087Z,47.36
2018-10-11T13:18:05.154Z,47.20
2018-10-11T13:20:33.274Z,47.31
2018-10-11T13:23:01.493Z,46.58
2018-10-11T13:25:29.604Z,47.11
2018-10-11T13:27:57.696Z,46.63
2018-10-11T13:30:25.856Z,45.88
2018-10-11T13:32:54.017Z,46.13
2018-10-11T13:35:22.193Z,46.69
2018-10-11T13:37:50.231Z,44.43
2018-10-11T13:40:18.315Z,45.05
2018-10-11T13:42:46.436Z,45.31
2018-10-11T13:45:14.528Z,45.53
2018-10-11T13:47:45.296Z,44.78
2018-10-11T13:50:10.899Z,44.86
2018-10-11T13:52:38.967Z,45.46
2018-10-11T13:55:11.114Z,45.56
2018-10-11T13:57:35.153Z,44.85
2018-10-11T14:00:03.444Z,45.56
2018-10-11T14:02:31.605Z,45.78
2018-10-11T14:04:59.709Z,45.93
2018-10-11T14:07:27.868Z,45.75
2018-10-11T14:09:55.949Z,45.23
2018-10-11T14:12:24.072Z,45.17
2018-10-11T14:14:52.146Z,45.53
2018-10-11T14:17:20.356Z,46.02
2018-10-11T14:19:48.439Z,45.48
2018-10-11T14:22:16.551Z,45.06
2018-10-11T14:24:44.629Z,45.78
2018-10-11T14:27:12.731Z,46.16
2018-10-11T14:29:40.795Z,45.92
2018-10-11T14:32:08.887Z,45.80
2018-10-11T14:34:37.024Z,45.12
2018-10-11T14:37:05.269Z,45.45
2018-10-11T14:39:33.264Z,45.93
2018-10-11T14:42:01.451Z,45.59
2018-10-11T14:44:29.573Z,45.68
2018-10-11T14:46:57.668Z,45.08
2018-10-11T14:49:26.098Z,45.38
2018-10-11T14:51:54.168Z,45.46
2018-10-11T14:54:22.236Z,45.31
2018-10-11T14:56:50.400Z,46.01
2018-10-11T14:59:20.806Z,45.66
2018-10-11T15:01:48.882Z,45.52
2018-10-11T15:04:16.965Z,45.80
2018-10-11T15:06:45.053Z,45.04
2018-10-11T15:09:13.120Z,46.12
2018-10-11T15:11:41.216Z,45.78
2018-10-11T15:14:09.276Z,45.58
2018-10-11T15:16:37.433Z,45.78
2018-10-11T15:19:05.512Z,46.50
2018-10-11T15:21:33.668Z,46.56
2018-10-11T15:24:01.812Z,46.14
2018-10-11T15:26:29.920Z,46.14
2018-10-11T15:28:57.992Z,46.17
2018-10-11T15:31:26.064Z,46.92
2018-10-11T15:33:54.283Z,47.21
2018-10-11T15:36:22.538Z,47.39
2018-10-11T15:38:50.672Z,46.61
2018-10-11T15:41:18.742Z,46.30
2018-10-11T15:43:46.905Z,46.33
2018-10-11T15:46:15.061Z,46.12
2018-10-11T15:48:43.131Z,46.97
2018-10-11T15:51:11.214Z,46.75
2018-10-11T15:53:39.344Z,46.34
2018-10-11T15:56:07.600Z,47.07
2018-10-11T15:58:35.759Z,47.10
2018-10-11T16:01:04.045Z,47.40
2018-10-11T16:03:32.144Z,47.16
2018-10-11T16:06:00.229Z,47.15
2018-10-11T16:08:28.293Z,47.60
2018-10-11T16:10:56.356Z,47.73
2018-10-11T16:13:24.536Z,47.98
2018-10-11T16:15:52.640Z,48.34
2018-10-11T16:18:20.756Z,48.67
2018-10-11T16:20:48.837Z,48.97
2018-10-11T16:23:16.924Z,48.83
2018-10-11T16:25:45.032Z,49.67
2018-10-11T16:28:13.126Z,50.05
2018-10-11T16:30:41.412Z,50.11
2018-10-11T16:33:09.421Z,50.43
2018-10-11T16:35:37.561Z,50.46
2018-10-11T16:38:05.633Z,51.09
2018-10-11T16:40:33.720Z,50.76
2018-10-11T16:43:01.782Z,50.83
2018-10-11T16:45:29.960Z,51.22
2018-10-11T16:47:58.029Z,51.20
2018-10-11T16:50:26.136Z,51.50
2018-10-11T16:52:54.228Z,51.54
2018-10-11T16:55:22.329Z,51.75
2018-10-11T16:57:50.421Z,52.45
2018-10-11T17:00:18.506Z,52.62
2018-10-11T17:02:46.593Z,52.22
2018-10-11T17:05:14.717Z,52.27
2018-10-11T17:07:42.942Z,52.93
2018-10-11T17:10:11.069Z,52.63
2018-10-11T17:12:39.164Z,53.40
2018-10-11T17:15:07.344Z,53.62
2018-10-11T17:17:35.517Z,53.24
2018-10-11T17:20:03.646Z,53.49
2018-10-11T17:22:31.716Z,53.80
2018-10-11T17:24:59.792Z,53.47
2018-10-11T17:27:28.256Z,53.72
2018-10-11T17:29:56.374Z,53.92
2018-10-11T17:32:24.692Z,53.51
2018-10-11T17:34:52.769Z,53.26
2018-10-11T17:37:20.901Z,53.51
2018-10-11T17:39:48.999Z,53.74
2018-10-11T17:42:17.176Z,53.93
2018-10-11T17:44:45.279Z,54.01
2018-10-11T17:47:13.349Z,54.12
2018-10-11T17:49:41.421Z,54.25
2018-10-11T17:52:09.500Z,54.75
2018-10-11T17:54:37.655Z,54.65
2018-10-11T17:57:05.780Z,54.45
2018-10-11T17:59:33.898Z,55.02
2018-10-11T18:02:01.984Z,55.02
2018-10-11T18:04:30.057Z,54.92
2018-10-11T18:06:58.149Z,54.93
2018-10-11T18:09:26.221Z,54.86
2018-10-11T18:11:54.294Z,54.73
2018-10-11T18:14:22.425Z,55.11
2018-10-11T18:16:50.525Z,54.62
2018-10-11T18:19:18.693Z,54.17
2018-10-11T18:21:46.843Z,54.16
2018-10-11T18:24:14.954Z,53.35
2018-10-11T18:26:43.008Z,53.01
2018-10-11T18:29:11.143Z,52.30
2018-10-11T18:31:39.160Z,51.59
2018-10-11T18:34:08.001Z,52.22
2018-10-11T18:36:36.080Z,51.71
2018-10-11T18:39:06.848Z,51.58
2018-10-11T18:41:34.924Z,51.14
2018-10-11T18:44:03.086Z,51.33
2018-10-11T18:46:31.136Z,51.62
2018-10-11T18:48:59.201Z,51.51
2018-10-11T18:51:27.273Z,51.07
2018-10-11T18:53:55.626Z,51.66
2018-10-11T18:56:23.769Z,51.67
2018-10-11T18:58:51.823Z,51.46
2018-10-11T19:01:19.949Z,51.36
2018-10-11T19:03:48.029Z,51.53
2018-10-11T19:06:16.167Z,51.02
2018-10-11T19:08:44.248Z,51.33
2018-10-11T19:11:12.546Z,51.16
2018-10-11T19:13:40.765Z,51.42
2018-10-11T19:16:09.072Z,51.79
2018-10-11T19:18:37.487Z,51.85
2018-10-11T19:21:05.581Z,51.90
2018-10-11T19:23:33.640Z,51.59
2018-10-11T19:26:01.705Z,51.74
2018-10-11T19:28:29.751Z,52.43
2018-10-11T19:30:57.913Z,52.24
2018-10-11T19:33:25.991Z,52.79
2018-10-11T19:35:54.134Z,52.53
2018-10-11T19:38:22.225Z,52.54
2018-10-11T19:40:50.570Z,53.29
2018-10-11T19:43:19.052Z,52.79
2018-10-11T19:45:47.209Z,53.22
2018-10-11T19:48:15.622Z,52.93
2018-10-11T19:50:43.716Z,53.14
2018-10-11T19:53:11.981Z,53.45
2018-10-11T19:55:40.133Z,52.75
2018-10-11T19:58:08.268Z,53.22
2018-10-11T20:00:36.332Z,53.25
2018-10-11T20:03:04.785Z,53.28
2018-10-11T20:05:32.840Z,52.38
2018-10-11T20:08:01.034Z,52.68
2018-10-11T20:10:29.064Z,52.70
2018-10-11T20:12:57.149Z,52.09
2018-10-11T20:15:25.290Z,52.14
2018-10-11T20:17:53.352Z,52.52
2018-10-11T20:20:21.399Z,52.40
2018-10-11T20:22:49.533Z,52.21
2018-10-11T20:25:17.593Z,51.84
2018-10-11T20:27:45.660Z,52.01
2018-10-11T20:30:13.856Z,51.68
2018-10-11T20:32:41.926Z,52.03
2018-10-11T20:35:10.034Z,52.20
2018-10-11T20:37:38.091Z,52.26
2018-10-11T20:40:06.246Z,51.96
2018-10-11T20:42:34.336Z,52.44
2018-10-11T20:45:02.433Z,52.33
2018-10-11T20:47:30.496Z,52.23
2018-10-11T20:49:58.669Z,52.66
2018-10-11T20:52:26.824Z,52.60
2018-10-11T20:54:54.910Z,52.45
2018-10-11T20:57:23.045Z,53.02
2018-10-11T20:59:51.141Z,52.81
2018-10-11T21:02:19.217Z,52.83
2018-10-11T21:04:47.260Z,53.41
2018-10-11T21:07:15.372Z,53.16
2018-10-11T21:09:43.441Z,53.13
2018-10-11T21:12:11.532Z,53.47
2018-10-11T21:14:39.636Z,53.10
2018-10-11T21:17:07.788Z,53.65
2018-10-11T21:19:35.849Z,54.12
2018-10-11T21:22:03.964Z,53.72
2018-10-11T21:24:32.046Z,53.70
2018-10-11T21:27:00.153Z,53.61
2018-10-11T21:29:28.363Z,53.66
2018-10-11T21:31:56.445Z,53.70
2018-10-11T21:34:24.548Z,54.01
2018-10-11T21:36:52.571Z,53.94
2018-10-11T21:39:20.648Z,53.71
2018-10-11T21:41:48.711Z,54.01
2018-10-11T21:44:16.817Z,53.55
2018-10-11T21:46:44.881Z,53.73
2018-10-11T21:49:12.953Z,53.46
2018-10-11T21:51:41.025Z,53.45
2018-10-11T21:54:09.143Z,53.63
2018-10-11T21:56:37.220Z,53.25
2018-10-11T21:59:05.384Z,53.12
2018-10-11T22:01:33.452Z,52.86
2018-10-11T22:04:01.527Z,53.33
2018-10-11T22:06:29.742Z,53.04
2018-10-11T22:08:57.902Z,53.20
2018-10-11T22:11:26.027Z,53.62
2018-10-11T22:13:54.096Z,53.38
2018-10-11T22:16:22.169Z,53.75
2018-10-11T22:18:50.244Z,53.73
2018-10-11T22:21:18.317Z,53.53
2018-10-11T22:23:46.432Z,53.68
2018-10-11T22:26:14.492Z,53.95
2018-10-11T22:28:42.557Z,53.65
2018-10-11T22:31:12.461Z,53.66
2018-10-11T22:33:41.231Z,53.82
2018-10-11T22:36:09.727Z,53.94
2018-10-11T22:38:37.837Z,53.92
2018-10-11T22:41:06.186Z,54.23
2018-10-11T22:43:34.260Z,54.02
2018-10-11T22:46:02.328Z,53.97
2018-10-11T22:48:30.400Z,53.83
2018-10-11T22:50:58.460Z,53.71
2018-10-11T22:53:26.548Z,53.76
2018-10-11T22:55:54.627Z,53.31
2018-10-11T22:58:22.714Z,53.93
2018-10-11T23:00:50.844Z,54.32
2018-10-11T23:03:18.949Z,54.09
2018-10-11T23:05:47.009Z,54.43
2018-10-11T23:08:15.080Z,54.91
2018-10-11T23:10:43.125Z,55.01
2018-10-11T23:13:11.196Z,55.66
2018-10-11T23:15:39.294Z,55.98
2018-10-11T23:18:07.360Z,55.63
2018-10-11T23:20:35.422Z,56.24
2018-10-11T23:23:03.517Z,56.76
2018-10-11T23:25:31.681Z,56.65
2018-10-11T23:27:59.736Z,57.13
2018-10-11T23:30:27.799Z,57.07
2018-10-11T23:32:55.874Z,57.30
2018-10-11T23:35:23.944Z,57.86
2018-10-11T23:37:52.005Z,57.99
2018-10-11T23:40:20.078Z,58.65
2018-10-11T23:42:48.160Z,58.34
2018-10-11T23:45:16.221Z,58.25
2018-10-11T23:47:44.275Z,58.78
2018-10-11T23:50:12.340Z,59.25
2018-10-11T23:52:40.659Z,59.44
2018-10-11T23:55:09.053Z,59.02
2018-10-11T23:57:37.109Z,59.40
